sensor_id;sensor_type;location;lat;lon;timestamp;P1;durP1;ratioP1;P2;durP2;ratioP2
23614;SDS011;11985;49.404;7.734;2022-09-14T00:01:43;8.50;;;4.47;;
23614;SDS011;11985;49.404;7.734;2022-09-14T00:03:46;8.70;;;4.85;;
23614;SDS011;11985;49.404;7.734;2022-09-14T00:05:48;6.68;;;4.32;;
23614;SDS011;11985;49.404;7.734;2022-09-14T00:07:49;9.10;;;5.03;;
23614;SDS011;11985;49.404;7.734;2022-09-14T00:09:51;9.05;;;4.93;;
23614;SDS011;11985;49.404;7.734;2022-09-14T00:11:52;9.57;;;4.50;;
23614;SDS011;11985;49.404;7.734;2022-09-14T00:13:55;12.38;;;4.32;;
23614;SDS011;11985;49.404;7.734;2022-09-14T00:16:02;9.85;;;4.35;;
23614;SDS011;11985;49.404;7.734;2022-09-14T00:18:06;14.70;;;5.20;;
23614;SDS011;11985;49.404;7.734;2022-09-14T00:20:10;6.57;;;4.68;;
23614;SDS011;11985;49.404;7.734;2022-09-14T00:22:11;9.85;;;5.18;;
23614;SDS011;11985;49.404;7.734;2022-09-14T00:24:13;9.40;;;4.57;;
23614;SDS011;11985;49.404;7.734;2022-09-14T00:26:17;12.43;;;4.82;;
23614;SDS011;11985;49.404;7.734;2022-09-14T00:28:20;11.98;;;5.22;;
23614;SDS011;11985;49.404;7.734;2022-09-14T00:30:22;8.15;;;4.55;;
23614;SDS011;11985;49.404;7.734;2022-09-14T00:32:26;10.27;;;4.78;;
23614;SDS011;11985;49.404;7.734;2022-09-14T00:34:27;8.00;;;4.85;;
23614;SDS011;11985;49.404;7.734;2022-09-14T00:38:31;7.90;;;4.75;;
23614;SDS011;11985;49.404;7.734;2022-09-14T00:40:32;6.25;;;4.13;;
23614;SDS011;11985;49.404;7.734;2022-09-14T00:42:34;5.93;;;4.03;;
23614;SDS011;11985;49.404;7.734;2022-09-14T00:47:08;7.57;;;4.93;;
23614;SDS011;11985;49.404;7.734;2022-09-14T00:49:15;8.18;;;4.78;;
23614;SDS011;11985;49.404;7.734;2022-09-14T00:51:21;6.20;;;4.47;;
23614;SDS011;11985;49.404;7.734;2022-09-14T00:55:24;7.30;;;3.75;;
23614;SDS011;11985;49.404;7.734;2022-09-14T00:59:29;8.50;;;3.08;;
23614;SDS011;11985;49.404;7.734;2022-09-14T01:01:33;7.07;;;3.28;;
23614;SDS011;11985;49.404;7.734;2022-09-14T01:03:35;7.78;;;3.22;;
23614;SDS011;11985;49.404;7.734;2022-09-14T01:07:54;5.95;;;3.20;;
23614;SDS011;11985;49.404;7.734;2022-09-14T01:10:07;13.88;;;5.03;;
23614;SDS011;11985;49.404;7.734;2022-09-14T01:12:18;8.48;;;4.68;;
23614;SDS011;11985;49.404;7.734;2022-09-14T01:14:28;8.85;;;5.07;;
23614;SDS011;11985;49.404;7.734;2022-09-14T01:16:41;9.13;;;5.25;;
23614;SDS011;11985;49.404;7.734;2022-09-14T01:18:49;6.93;;;5.75;;
23614;SDS011;11985;49.404;7.734;2022-09-14T01:20:57;10.57;;;5.90;;
23614;SDS011;11985;49.404;7.734;2022-09-14T01:23:04;7.65;;;5.32;;
23614;SDS011;11985;49.404;7.734;2022-09-14T01:25:14;9.43;;;5.75;;
23614;SDS011;11985;49.404;7.734;2022-09-14T01:27:31;8.63;;;6.45;;
23614;SDS011;11985;49.404;7.734;2022-09-14T01:29:40;12.10;;;6.75;;
23614;SDS011;11985;49.404;7.734;2022-09-14T01:31:47;10.63;;;8.13;;
23614;SDS011;11985;49.404;7.734;2022-09-14T01:33:54;12.75;;;7.07;;
23614;SDS011;11985;49.404;7.734;2022-09-14T01:36:01;16.17;;;8.45;;
23614;SDS011;11985;49.404;7.734;2022-09-14T01:38:08;12.88;;;7.05;;
23614;SDS011;11985;49.404;7.734;2022-09-14T01:40:15;14.43;;;6.90;;
23614;SDS011;11985;49.404;7.734;2022-09-14T01:42:20;9.40;;;5.93;;
23614;SDS011;11985;49.404;7.734;2022-09-14T01:44:26;10.32;;;5.40;;
23614;SDS011;11985;49.404;7.734;2022-09-14T01:46:33;7.32;;;4.88;;
23614;SDS011;11985;49.404;7.734;2022-09-14T01:48:40;7.45;;;5.03;;
23614;SDS011;11985;49.404;7.734;2022-09-14T01:50:44;8.27;;;4.28;;
23614;SDS011;11985;49.404;7.734;2022-09-14T01:52:51;7.70;;;3.67;;
23614;SDS011;11985;49.404;7.734;2022-09-14T01:54:59;7.35;;;3.25;;
23614;SDS011;11985;49.404;7.734;2022-09-14T01:57:05;10.05;;;3.25;;
23614;SDS011;11985;49.404;7.734;2022-09-14T01:59:13;8.60;;;3.78;;
23614;SDS011;11985;49.404;7.734;2022-09-14T02:01:20;8.85;;;3.45;;
23614;SDS011;11985;49.404;7.734;2022-09-14T02:03:28;5.60;;;3.03;;
23614;SDS011;11985;49.404;7.734;2022-09-14T02:05:36;7.47;;;2.83;;
23614;SDS011;11985;49.404;7.734;2022-09-14T02:07:41;4.30;;;3.13;;
23614;SDS011;11985;49.404;7.734;2022-09-14T02:09:42;6.82;;;3.30;;
23614;SDS011;11985;49.404;7.734;2022-09-14T02:11:46;7.45;;;3.47;;
23614;SDS011;11985;49.404;7.734;2022-09-14T02:13:47;6.63;;;3.00;;
23614;SDS011;11985;49.404;7.734;2022-09-14T02:15:49;6.47;;;3.70;;
23614;SDS011;11985;49.404;7.734;2022-09-14T02:17:52;5.03;;;3.30;;
23614;SDS011;11985;49.404;7.734;2022-09-14T02:19:55;7.55;;;3.45;;
23614;SDS011;11985;49.404;7.734;2022-09-14T02:21:59;7.50;;;3.22;;
23614;SDS011;11985;49.404;7.734;2022-09-14T02:24:00;6.38;;;3.55;;
23614;SDS011;11985;49.404;7.734;2022-09-14T02:26:03;5.88;;;3.17;;
23614;SDS011;11985;49.404;7.734;2022-09-14T02:28:05;5.50;;;3.45;;
23614;SDS011;11985;49.404;7.734;2022-09-14T02:30:08;7.35;;;3.50;;
23614;SDS011;11985;49.404;7.734;2022-09-14T02:32:14;8.05;;;3.50;;
23614;SDS011;11985;49.404;7.734;2022-09-14T02:34:29;6.95;;;3.47;;
23614;SDS011;11985;49.404;7.734;2022-09-14T02:36:41;6.65;;;4.55;;
23614;SDS011;11985;49.404;7.734;2022-09-14T02:38:50;7.07;;;3.75;;
23614;SDS011;11985;49.404;7.734;2022-09-14T02:40:59;9.85;;;3.65;;
23614;SDS011;11985;49.404;7.734;2022-09-14T02:43:10;6.38;;;3.50;;
23614;SDS011;11985;49.404;7.734;2022-09-14T02:45:20;5.35;;;3.85;;
23614;SDS011;11985;49.404;7.734;2022-09-14T02:47:30;5.25;;;2.70;;
23614;SDS011;11985;49.404;7.734;2022-09-14T02:49:39;5.13;;;3.00;;
23614;SDS011;11985;49.404;7.734;2022-09-14T02:51:45;7.75;;;3.78;;
23614;SDS011;11985;49.404;7.734;2022-09-14T02:56:01;6.38;;;3.72;;
23614;SDS011;11985;49.404;7.734;2022-09-14T02:58:05;6.45;;;3.97;;
23614;SDS011;11985;49.404;7.734;2022-09-14T03:00:09;6.32;;;4.35;;
23614;SDS011;11985;49.404;7.734;2022-09-14T03:02:11;7.43;;;4.53;;
23614;SDS011;11985;49.404;7.734;2022-09-14T03:04:13;6.03;;;4.65;;
23614;SDS011;11985;49.404;7.734;2022-09-14T03:08:17;6.22;;;4.40;;
23614;SDS011;11985;49.404;7.734;2022-09-14T03:10:18;8.63;;;4.53;;
23614;SDS011;11985;49.404;7.734;2022-09-14T03:12:20;6.88;;;4.50;;
23614;SDS011;11985;49.404;7.734;2022-09-14T03:14:21;5.50;;;4.03;;
23614;SDS011;11985;49.404;7.734;2022-09-14T03:16:23;6.88;;;4.30;;
23614;SDS011;11985;49.404;7.734;2022-09-14T03:18:24;9.13;;;4.70;;
23614;SDS011;11985;49.404;7.734;2022-09-14T03:20:26;5.57;;;4.57;;
23614;SDS011;11985;49.404;7.734;2022-09-14T03:22:31;7.20;;;4.50;;
23614;SDS011;11985;49.404;7.734;2022-09-14T03:24:32;9.57;;;4.80;;
23614;SDS011;11985;49.404;7.734;2022-09-14T03:26:35;4.05;;;3.63;;
23614;SDS011;11985;49.404;7.734;2022-09-14T03:28:37;7.57;;;4.70;;
23614;SDS011;11985;49.404;7.734;2022-09-14T03:30:39;6.88;;;3.47;;
23614;SDS011;11985;49.404;7.734;2022-09-14T03:34:42;7.43;;;3.90;;
23614;SDS011;11985;49.404;7.734;2022-09-14T03:36:43;7.90;;;4.28;;
23614;SDS011;11985;49.404;7.734;2022-09-14T03:38:48;5.80;;;4.57;;
23614;SDS011;11985;49.404;7.734;2022-09-14T03:40:51;5.80;;;3.75;;
23614;SDS011;11985;49.404;7.734;2022-09-14T03:42:53;7.22;;;4.03;;
23614;SDS011;11985;49.404;7.734;2022-09-14T03:44:54;7.32;;;3.95;;
23614;SDS011;11985;49.404;7.734;2022-09-14T03:46:56;9.55;;;4.63;;
23614;SDS011;11985;49.404;7.734;2022-09-14T03:48:57;7.03;;;3.60;;
23614;SDS011;11985;49.404;7.734;2022-09-14T03:50:59;4.65;;;3.63;;
23614;SDS011;11985;49.404;7.734;2022-09-14T03:53:01;9.10;;;3.55;;
23614;SDS011;11985;49.404;7.734;2022-09-14T03:55:05;3.83;;;3.40;;
23614;SDS011;11985;49.404;7.734;2022-09-14T03:57:09;6.70;;;3.35;;
23614;SDS011;11985;49.404;7.734;2022-09-14T03:59:10;4.93;;;3.45;;
23614;SDS011;11985;49.404;7.734;2022-09-14T04:01:12;9.20;;;2.83;;
23614;SDS011;11985;49.404;7.734;2022-09-14T04:03:16;8.65;;;3.60;;
23614;SDS011;11985;49.404;7.734;2022-09-14T04:07:19;5.17;;;3.63;;
23614;SDS011;11985;49.404;7.734;2022-09-14T04:09:20;8.32;;;3.53;;
23614;SDS011;11985;49.404;7.734;2022-09-14T04:11:23;6.10;;;3.13;;
23614;SDS011;11985;49.404;7.734;2022-09-14T04:13:25;5.38;;;3.35;;
23614;SDS011;11985;49.404;7.734;2022-09-14T04:15:27;5.45;;;3.17;;
23614;SDS011;11985;49.404;7.734;2022-09-14T04:17:28;3.70;;;2.47;;
23614;SDS011;11985;49.404;7.734;2022-09-14T04:19:30;4.88;;;2.60;;
23614;SDS011;11985;49.404;7.734;2022-09-14T04:21:33;6.65;;;3.00;;
23614;SDS011;11985;49.404;7.734;2022-09-14T04:23:35;2.85;;;2.55;;
23614;SDS011;11985;49.404;7.734;2022-09-14T04:25:37;3.65;;;2.72;;
23614;SDS011;11985;49.404;7.734;2022-09-14T04:27:40;4.18;;;2.90;;
23614;SDS011;11985;49.404;7.734;2022-09-14T04:29:41;5.95;;;3.38;;
23614;SDS011;11985;49.404;7.734;2022-09-14T04:31:43;4.60;;;3.20;;
23614;SDS011;11985;49.404;7.734;2022-09-14T04:33:44;4.65;;;3.15;;
23614;SDS011;11985;49.404;7.734;2022-09-14T04:35:54;5.28;;;3.50;;
23614;SDS011;11985;49.404;7.734;2022-09-14T04:37:57;5.07;;;3.70;;
23614;SDS011;11985;49.404;7.734;2022-09-14T04:39:59;4.43;;;3.80;;
23614;SDS011;11985;49.404;7.734;2022-09-14T04:42:00;4.80;;;3.70;;
23614;SDS011;11985;49.404;7.734;2022-09-14T04:44:03;4.50;;;3.92;;
23614;SDS011;11985;49.404;7.734;2022-09-14T04:46:05;5.85;;;4.38;;
23614;SDS011;11985;49.404;7.734;2022-09-14T04:48:08;8.98;;;5.60;;
23614;SDS011;11985;49.404;7.734;2022-09-14T04:50:10;9.57;;;5.65;;
23614;SDS011;11985;49.404;7.734;2022-09-14T04:52:11;5.57;;;4.95;;
23614;SDS011;11985;49.404;7.734;2022-09-14T04:54:13;6.90;;;5.72;;
23614;SDS011;11985;49.404;7.734;2022-09-14T04:56:16;7.82;;;7.03;;
23614;SDS011;11985;49.404;7.734;2022-09-14T04:58:18;7.43;;;6.13;;
23614;SDS011;11985;49.404;7.734;2022-09-14T05:00:21;7.82;;;5.28;;
23614;SDS011;11985;49.404;7.734;2022-09-14T05:02:23;5.35;;;4.85;;
23614;SDS011;11985;49.404;7.734;2022-09-14T05:04:25;8.63;;;4.95;;
23614;SDS011;11985;49.404;7.734;2022-09-14T05:06:27;5.25;;;4.75;;
23614;SDS011;11985;49.404;7.734;2022-09-14T05:08:30;6.88;;;4.45;;
23614;SDS011;11985;49.404;7.734;2022-09-14T05:10:32;6.00;;;4.32;;
23614;SDS011;11985;49.404;7.734;2022-09-14T05:12:34;4.93;;;3.97;;
23614;SDS011;11985;49.404;7.734;2022-09-14T05:14:35;5.80;;;4.30;;
23614;SDS011;11985;49.404;7.734;2022-09-14T05:16:38;4.38;;;3.70;;
23614;SDS011;11985;49.404;7.734;2022-09-14T05:18:41;6.15;;;4.03;;
23614;SDS011;11985;49.404;7.734;2022-09-14T05:20:44;8.93;;;4.05;;
23614;SDS011;11985;49.404;7.734;2022-09-14T05:22:47;4.28;;;3.63;;
23614;SDS011;11985;49.404;7.734;2022-09-14T05:24:49;6.68;;;3.92;;
23614;SDS011;11985;49.404;7.734;2022-09-14T05:26:51;6.30;;;4.00;;
23614;SDS011;11985;49.404;7.734;2022-09-14T05:28:54;4.60;;;4.10;;
23614;SDS011;11985;49.404;7.734;2022-09-14T05:30:57;5.53;;;4.75;;
23614;SDS011;11985;49.404;7.734;2022-09-14T05:33:00;10.98;;;4.60;;
23614;SDS011;11985;49.404;7.734;2022-09-14T05:35:02;4.72;;;4.22;;
23614;SDS011;11985;49.404;7.734;2022-09-14T05:37:03;4.18;;;3.65;;
23614;SDS011;11985;49.404;7.734;2022-09-14T05:39:05;5.30;;;4.00;;
23614;SDS011;11985;49.404;7.734;2022-09-14T05:41:09;6.07;;;3.83;;
23614;SDS011;11985;49.404;7.734;2022-09-14T05:43:11;8.63;;;3.70;;
23614;SDS011;11985;49.404;7.734;2022-09-14T05:45:13;4.28;;;3.22;;
23614;SDS011;11985;49.404;7.734;2022-09-14T05:47:14;3.80;;;3.38;;
23614;SDS011;11985;49.404;7.734;2022-09-14T05:49:17;7.85;;;3.45;;
23614;SDS011;11985;49.404;7.734;2022-09-14T05:51:19;5.00;;;3.00;;
23614;SDS011;11985;49.404;7.734;2022-09-14T05:53:22;4.40;;;3.03;;
23614;SDS011;11985;49.404;7.734;2022-09-14T05:55:24;3.28;;;2.60;;
23614;SDS011;11985;49.404;7.734;2022-09-14T05:59:27;5.75;;;3.25;;
23614;SDS011;11985;49.404;7.734;2022-09-14T06:01:30;3.22;;;2.80;;
23614;SDS011;11985;49.404;7.734;2022-09-14T06:03:32;5.57;;;3.22;;
23614;SDS011;11985;49.404;7.734;2022-09-14T06:07:37;5.22;;;2.88;;
23614;SDS011;11985;49.404;7.734;2022-09-14T06:09:38;3.60;;;2.72;;
23614;SDS011;11985;49.404;7.734;2022-09-14T06:11:40;3.00;;;2.65;;
23614;SDS011;11985;49.404;7.734;2022-09-14T06:13:42;3.67;;;3.00;;
23614;SDS011;11985;49.404;7.734;2022-09-14T06:15:44;3.65;;;3.35;;
23614;SDS011;11985;49.404;7.734;2022-09-14T06:17:45;5.32;;;3.40;;
23614;SDS011;11985;49.404;7.734;2022-09-14T06:19:47;6.00;;;3.83;;
23614;SDS011;11985;49.404;7.734;2022-09-14T06:21:50;5.63;;;3.33;;
23614;SDS011;11985;49.404;7.734;2022-09-14T06:23:51;6.72;;;4.40;;
23614;SDS011;11985;49.404;7.734;2022-09-14T06:25:54;5.88;;;3.45;;
23614;SDS011;11985;49.404;7.734;2022-09-14T06:27:58;9.00;;;5.20;;
23614;SDS011;11985;49.404;7.734;2022-09-14T06:30:00;23.52;;;6.70;;
23614;SDS011;11985;49.404;7.734;2022-09-14T06:32:01;15.18;;;6.10;;
23614;SDS011;11985;49.404;7.734;2022-09-14T06:34:03;10.43;;;6.53;;
23614;SDS011;11985;49.404;7.734;2022-09-14T06:36:06;17.60;;;7.30;;
23614;SDS011;11985;49.404;7.734;2022-09-14T06:38:11;19.98;;;7.53;;
23614;SDS011;11985;49.404;7.734;2022-09-14T06:40:13;17.75;;;8.18;;
23614;SDS011;11985;49.404;7.734;2022-09-14T06:42:15;26.40;;;9.35;;
23614;SDS011;11985;49.404;7.734;2022-09-14T06:44:16;17.25;;;8.40;;
23614;SDS011;11985;49.404;7.734;2022-09-14T06:46:19;20.95;;;9.00;;
23614;SDS011;11985;49.404;7.734;2022-09-14T06:48:22;36.30;;;9.05;;
23614;SDS011;11985;49.404;7.734;2022-09-14T06:50:24;38.85;;;8.75;;
23614;SDS011;11985;49.404;7.734;2022-09-14T06:52:26;31.05;;;10.00;;
23614;SDS011;11985;49.404;7.734;2022-09-14T06:54:29;31.75;;;10.45;;
23614;SDS011;11985;49.404;7.734;2022-09-14T06:56:31;35.42;;;10.73;;
23614;SDS011;11985;49.404;7.734;2022-09-14T06:58:34;39.75;;;9.95;;
23614;SDS011;11985;49.404;7.734;2022-09-14T07:00:35;39.10;;;10.85;;
23614;SDS011;11985;49.404;7.734;2022-09-14T07:02:37;36.30;;;11.70;;
23614;SDS011;11985;49.404;7.734;2022-09-14T07:04:38;39.17;;;10.80;;
23614;SDS011;11985;49.404;7.734;2022-09-14T07:06:40;36.80;;;10.90;;
23614;SDS011;11985;49.404;7.734;2022-09-14T07:08:44;31.00;;;11.23;;
23614;SDS011;11985;49.404;7.734;2022-09-14T07:10:55;44.80;;;11.25;;
23614;SDS011;11985;49.404;7.734;2022-09-14T07:12:57;39.13;;;11.85;;
23614;SDS011;11985;49.404;7.734;2022-09-14T07:14:59;41.78;;;11.57;;
23614;SDS011;11985;49.404;7.734;2022-09-14T07:17:01;30.13;;;12.00;;
23614;SDS011;11985;49.404;7.734;2022-09-14T07:19:03;56.70;;;13.55;;
23614;SDS011;11985;49.404;7.734;2022-09-14T07:21:06;42.85;;;13.05;;
23614;SDS011;11985;49.404;7.734;2022-09-14T07:23:10;49.50;;;13.13;;
23614;SDS011;11985;49.404;7.734;2022-09-14T07:25:12;43.08;;;14.75;;
23614;SDS011;11985;49.404;7.734;2022-09-14T07:27:15;41.83;;;15.10;;
23614;SDS011;11985;49.404;7.734;2022-09-14T07:29:19;50.20;;;14.23;;
23614;SDS011;11985;49.404;7.734;2022-09-14T07:31:22;31.98;;;14.57;;
23614;SDS011;11985;49.404;7.734;2022-09-14T07:33:25;39.78;;;14.77;;
23614;SDS011;11985;49.404;7.734;2022-09-14T07:35:27;34.75;;;15.30;;
23614;SDS011;11985;49.404;7.734;2022-09-14T07:37:29;32.75;;;14.98;;
23614;SDS011;11985;49.404;7.734;2022-09-14T07:39:31;30.10;;;14.75;;
23614;SDS011;11985;49.404;7.734;2022-09-14T07:41:33;32.53;;;14.98;;
23614;SDS011;11985;49.404;7.734;2022-09-14T07:43:36;29.70;;;14.52;;
23614;SDS011;11985;49.404;7.734;2022-09-14T07:45:38;25.98;;;13.55;;
23614;SDS011;11985;49.404;7.734;2022-09-14T07:47:39;30.48;;;13.95;;
23614;SDS011;11985;49.404;7.734;2022-09-14T07:51:42;28.97;;;12.77;;
23614;SDS011;11985;49.404;7.734;2022-09-14T07:53:44;36.90;;;13.68;;
23614;SDS011;11985;49.404;7.734;2022-09-14T07:55:46;34.90;;;13.70;;
23614;SDS011;11985;49.404;7.734;2022-09-14T07:57:47;32.15;;;14.38;;
23614;SDS011;11985;49.404;7.734;2022-09-14T07:59:50;32.10;;;14.25;;
23614;SDS011;11985;49.404;7.734;2022-09-14T08:01:52;36.78;;;14.68;;
23614;SDS011;11985;49.404;7.734;2022-09-14T08:03:53;36.05;;;15.88;;
23614;SDS011;11985;49.404;7.734;2022-09-14T08:05:58;34.33;;;15.18;;
23614;SDS011;11985;49.404;7.734;2022-09-14T08:08:00;37.35;;;17.17;;
23614;SDS011;11985;49.404;7.734;2022-09-14T08:10:02;36.13;;;15.23;;
23614;SDS011;11985;49.404;7.734;2022-09-14T08:12:04;37.92;;;15.70;;
23614;SDS011;11985;49.404;7.734;2022-09-14T08:14:08;32.58;;;15.57;;
23614;SDS011;11985;49.404;7.734;2022-09-14T08:16:14;31.02;;;15.07;;
23614;SDS011;11985;49.404;7.734;2022-09-14T08:18:17;32.65;;;15.65;;
23614;SDS011;11985;49.404;7.734;2022-09-14T08:20:18;34.35;;;15.88;;
23614;SDS011;11985;49.404;7.734;2022-09-14T08:22:20;27.80;;;15.23;;
23614;SDS011;11985;49.404;7.734;2022-09-14T08:24:21;30.60;;;15.95;;
23614;SDS011;11985;49.404;7.734;2022-09-14T08:26:24;29.90;;;16.08;;
23614;SDS011;11985;49.404;7.734;2022-09-14T08:28:27;28.45;;;14.85;;
23614;SDS011;11985;49.404;7.734;2022-09-14T08:30:28;26.63;;;15.65;;
23614;SDS011;11985;49.404;7.734;2022-09-14T08:32:31;26.85;;;15.50;;
23614;SDS011;11985;49.404;7.734;2022-09-14T08:34:32;24.95;;;14.43;;
23614;SDS011;11985;49.404;7.734;2022-09-14T08:36:34;25.38;;;14.73;;
23614;SDS011;11985;49.404;7.734;2022-09-14T08:38:37;25.00;;;14.20;;
23614;SDS011;11985;49.404;7.734;2022-09-14T08:42:45;28.75;;;14.85;;
23614;SDS011;11985;49.404;7.734;2022-09-14T08:44:48;27.45;;;16.35;;
23614;SDS011;11985;49.404;7.734;2022-09-14T08:46:56;29.30;;;16.38;;
23614;SDS011;11985;49.404;7.734;2022-09-14T08:49:01;29.30;;;16.98;;
23614;SDS011;11985;49.404;7.734;2022-09-14T08:51:10;28.08;;;16.60;;
23614;SDS011;11985;49.404;7.734;2022-09-14T08:53:11;30.95;;;16.80;;
23614;SDS011;11985;49.404;7.734;2022-09-14T08:55:18;26.20;;;15.48;;
23614;SDS011;11985;49.404;7.734;2022-09-14T08:57:31;27.30;;;17.10;;
23614;SDS011;11985;49.404;7.734;2022-09-14T08:59:41;27.73;;;15.90;;
23614;SDS011;11985;49.404;7.734;2022-09-14T09:01:52;28.10;;;16.42;;
23614;SDS011;11985;49.404;7.734;2022-09-14T09:04:05;21.92;;;14.93;;
23614;SDS011;11985;49.404;7.734;2022-09-14T09:06:14;24.35;;;15.00;;
23614;SDS011;11985;49.404;7.734;2022-09-14T09:08:21;21.05;;;14.27;;
23614;SDS011;11985;49.404;7.734;2022-09-14T09:10:29;22.17;;;14.05;;
23614;SDS011;11985;49.404;7.734;2022-09-14T09:12:34;22.05;;;13.60;;
23614;SDS011;11985;49.404;7.734;2022-09-14T09:14:38;21.02;;;13.63;;
23614;SDS011;11985;49.404;7.734;2022-09-14T09:16:44;21.05;;;11.82;;
23614;SDS011;11985;49.404;7.734;2022-09-14T09:18:50;23.23;;;13.20;;
23614;SDS011;11985;49.404;7.734;2022-09-14T09:20:57;15.45;;;11.32;;
23614;SDS011;11985;49.404;7.734;2022-09-14T09:23:04;13.93;;;10.38;;
23614;SDS011;11985;49.404;7.734;2022-09-14T09:25:13;18.92;;;10.52;;
23614;SDS011;11985;49.404;7.734;2022-09-14T09:27:21;17.90;;;10.98;;
23614;SDS011;11985;49.404;7.734;2022-09-14T09:29:24;16.55;;;10.75;;
23614;SDS011;11985;49.404;7.734;2022-09-14T09:31:28;18.38;;;10.15;;
23614;SDS011;11985;49.404;7.734;2022-09-14T09:33:34;15.95;;;9.45;;
23614;SDS011;11985;49.404;7.734;2022-09-14T09:37:38;13.90;;;8.68;;
23614;SDS011;11985;49.404;7.734;2022-09-14T09:39:40;12.88;;;8.68;;
23614;SDS011;11985;49.404;7.734;2022-09-14T09:41:44;16.77;;;8.82;;
23614;SDS011;11985;49.404;7.734;2022-09-14T09:43:58;12.43;;;8.60;;
23614;SDS011;11985;49.404;7.734;2022-09-14T09:46:02;11.38;;;8.30;;
23614;SDS011;11985;49.404;7.734;2022-09-14T09:48:07;14.98;;;8.95;;
23614;SDS011;11985;49.404;7.734;2022-09-14T09:50:15;17.17;;;8.75;;
23614;SDS011;11985;49.404;7.734;2022-09-14T09:52:18;13.90;;;8.20;;
23614;SDS011;11985;49.404;7.734;2022-09-14T09:54:25;14.40;;;8.32;;
23614;SDS011;11985;49.404;7.734;2022-09-14T09:56:30;11.25;;;8.13;;
23614;SDS011;11985;49.404;7.734;2022-09-14T09:58:33;11.52;;;7.97;;
23614;SDS011;11985;49.404;7.734;2022-09-14T10:00:36;12.45;;;7.15;;
23614;SDS011;11985;49.404;7.734;2022-09-14T10:02:38;8.73;;;6.53;;
23614;SDS011;11985;49.404;7.734;2022-09-14T10:04:54;16.88;;;6.95;;
23614;SDS011;11985;49.404;7.734;2022-09-14T10:06:57;12.93;;;6.57;;
23614;SDS011;11985;49.404;7.734;2022-09-14T10:08:59;11.13;;;6.20;;
23614;SDS011;11985;49.404;7.734;2022-09-14T10:13:04;8.50;;;5.30;;
23614;SDS011;11985;49.404;7.734;2022-09-14T10:15:16;8.40;;;5.00;;
23614;SDS011;11985;49.404;7.734;2022-09-14T10:17:21;9.70;;;5.30;;
23614;SDS011;11985;49.404;7.734;2022-09-14T10:19:23;11.95;;;5.00;;
23614;SDS011;11985;49.404;7.734;2022-09-14T10:21:28;11.65;;;4.90;;
23614;SDS011;11985;49.404;7.734;2022-09-14T10:23:31;6.13;;;4.05;;
23614;SDS011;11985;49.404;7.734;2022-09-14T10:25:35;6.85;;;3.40;;
23614;SDS011;11985;49.404;7.734;2022-09-14T10:27:39;7.65;;;4.30;;
23614;SDS011;11985;49.404;7.734;2022-09-14T10:29:42;7.03;;;4.20;;
23614;SDS011;11985;49.404;7.734;2022-09-14T10:31:44;10.88;;;3.53;;
23614;SDS011;11985;49.404;7.734;2022-09-14T10:33:49;10.43;;;3.80;;
23614;SDS011;11985;49.404;7.734;2022-09-14T10:35:55;6.97;;;3.47;;
23614;SDS011;11985;49.404;7.734;2022-09-14T10:38:11;7.18;;;3.45;;
23614;SDS011;11985;49.404;7.734;2022-09-14T10:40:26;5.97;;;3.20;;
23614;SDS011;11985;49.404;7.734;2022-09-14T10:42:36;8.50;;;3.47;;
23614;SDS011;11985;49.404;7.734;2022-09-14T10:44:44;5.35;;;3.40;;
23614;SDS011;11985;49.404;7.734;2022-09-14T10:47:00;10.45;;;3.08;;
23614;SDS011;11985;49.404;7.734;2022-09-14T10:49:19;8.10;;;2.85;;
23614;SDS011;11985;49.404;7.734;2022-09-14T10:51:34;8.40;;;3.38;;
23614;SDS011;11985;49.404;7.734;2022-09-14T10:53:47;7.32;;;2.75;;
23614;SDS011;11985;49.404;7.734;2022-09-14T10:55:55;9.38;;;3.10;;
23614;SDS011;11985;49.404;7.734;2022-09-14T10:58:05;6.38;;;2.90;;
23614;SDS011;11985;49.404;7.734;2022-09-14T11:00:18;9.40;;;3.30;;
23614;SDS011;11985;49.404;7.734;2022-09-14T11:02:36;5.72;;;3.10;;
23614;SDS011;11985;49.404;7.734;2022-09-14T11:04:56;12.90;;;3.00;;
23614;SDS011;11985;49.404;7.734;2022-09-14T11:07:07;8.23;;;2.88;;
23614;SDS011;11985;49.404;7.734;2022-09-14T11:09:15;5.30;;;3.00;;
23614;SDS011;11985;49.404;7.734;2022-09-14T11:11:25;9.88;;;3.00;;
23614;SDS011;11985;49.404;7.734;2022-09-14T11:13:44;8.52;;;3.50;;
23614;SDS011;11985;49.404;7.734;2022-09-14T11:15:54;6.78;;;2.90;;
23614;SDS011;11985;49.404;7.734;2022-09-14T11:18:06;8.50;;;3.40;;
23614;SDS011;11985;49.404;7.734;2022-09-14T11:20:21;9.48;;;3.22;;
23614;SDS011;11985;49.404;7.734;2022-09-14T11:22:36;7.30;;;3.35;;
23614;SDS011;11985;49.404;7.734;2022-09-14T11:24:47;8.57;;;3.20;;
23614;SDS011;11985;49.404;7.734;2022-09-14T11:26:56;10.75;;;2.90;;
23614;SDS011;11985;49.404;7.734;2022-09-14T11:29:06;7.38;;;2.70;;
23614;SDS011;11985;49.404;7.734;2022-09-14T11:31:17;5.82;;;2.85;;
23614;SDS011;11985;49.404;7.734;2022-09-14T11:33:22;7.78;;;3.13;;
23614;SDS011;11985;49.404;7.734;2022-09-14T11:35:33;5.57;;;3.13;;
23614;SDS011;11985;49.404;7.734;2022-09-14T11:37:39;11.25;;;3.20;;
23614;SDS011;11985;49.404;7.734;2022-09-14T11:39:44;10.10;;;3.05;;
23614;SDS011;11985;49.404;7.734;2022-09-14T11:41:51;7.88;;;3.10;;
23614;SDS011;11985;49.404;7.734;2022-09-14T11:43:57;11.43;;;3.10;;
23614;SDS011;11985;49.404;7.734;2022-09-14T11:46:06;4.00;;;2.80;;
23614;SDS011;11985;49.404;7.734;2022-09-14T11:48:11;6.60;;;3.33;;
23614;SDS011;11985;49.404;7.734;2022-09-14T11:50:18;4.53;;;3.15;;
23614;SDS011;11985;49.404;7.734;2022-09-14T11:52:23;6.10;;;3.08;;
23614;SDS011;11985;49.404;7.734;2022-09-14T11:54:26;10.40;;;3.67;;
23614;SDS011;11985;49.404;7.734;2022-09-14T11:56:28;5.75;;;3.25;;
23614;SDS011;11985;49.404;7.734;2022-09-14T11:58:32;8.13;;;3.55;;
23614;SDS011;11985;49.404;7.734;2022-09-14T12:02:56;11.20;;;3.20;;
23614;SDS011;11985;49.404;7.734;2022-09-14T12:07:56;7.97;;;3.03;;
23614;SDS011;11985;49.404;7.734;2022-09-14T12:10:12;5.68;;;2.72;;
23614;SDS011;11985;49.404;7.734;2022-09-14T12:12:33;4.20;;;2.72;;
23614;SDS011;11985;49.404;7.734;2022-09-14T12:14:37;5.65;;;2.90;;
23614;SDS011;11985;49.404;7.734;2022-09-14T12:19:16;6.00;;;2.97;;
23614;SDS011;11985;49.404;7.734;2022-09-14T12:21:19;6.10;;;3.20;;
23614;SDS011;11985;49.404;7.734;2022-09-14T12:23:25;5.60;;;2.97;;
23614;SDS011;11985;49.404;7.734;2022-09-14T12:25:30;9.20;;;3.40;;
23614;SDS011;11985;49.404;7.734;2022-09-14T12:29:35;6.95;;;3.20;;
23614;SDS011;11985;49.404;7.734;2022-09-14T12:31:38;9.77;;;4.00;;
23614;SDS011;11985;49.404;7.734;2022-09-14T12:39:19;7.75;;;3.22;;
23614;SDS011;11985;49.404;7.734;2022-09-14T12:44:00;3.95;;;2.95;;
23614;SDS011;11985;49.404;7.734;2022-09-14T12:46:02;8.00;;;3.30;;
23614;SDS011;11985;49.404;7.734;2022-09-14T12:48:06;7.05;;;3.20;;
23614;SDS011;11985;49.404;7.734;2022-09-14T12:50:11;7.53;;;3.30;;
23614;SDS011;11985;49.404;7.734;2022-09-14T12:54:41;6.65;;;3.15;;
23614;SDS011;11985;49.404;7.734;2022-09-14T12:56:54;5.90;;;2.80;;
23614;SDS011;11985;49.404;7.734;2022-09-14T12:59:04;6.43;;;3.20;;
23614;SDS011;11985;49.404;7.734;2022-09-14T13:01:18;5.63;;;3.45;;
23614;SDS011;11985;49.404;7.734;2022-09-14T13:05:48;9.40;;;2.78;;
23614;SDS011;11985;49.404;7.734;2022-09-14T13:07:51;9.45;;;3.03;;
23614;SDS011;11985;49.404;7.734;2022-09-14T13:09:54;9.35;;;2.38;;
23614;SDS011;11985;49.404;7.734;2022-09-14T13:11:57;7.05;;;2.33;;
23614;SDS011;11985;49.404;7.734;2022-09-14T13:14:02;8.65;;;2.45;;
23614;SDS011;11985;49.404;7.734;2022-09-14T13:16:04;6.15;;;2.15;;
23614;SDS011;11985;49.404;7.734;2022-09-14T13:18:24;5.43;;;1.90;;
23614;SDS011;11985;49.404;7.734;2022-09-14T13:20:28;6.07;;;2.90;;